KMOR

Moore-Murrell Airport

Morristown, Tennessee, USA
METAR KMOR 200835Z AUTO 23003KT 10SM SCT050 22/20 A2999 RMK A01
Observed Flight Rules
Jun-20 @ 08:35 UTC (34 minutes ago) Visual Flight Rules
Wind Visibility Clouds
230° at 3 knots 10 miles
  • Scattered at 5,000' AGL
Temperatures Readings
Current 22°C / 72°F
Dewpoint 20°C / 68°F
Humidity 88%
Altimeter 29.99" Hg
Pressure 1016 hPa
Elevation 400
METAR KMOR 200835Z AUTO 23003KT 10SM SCT050 22/20 A2999 RMK A01
Observed Flight Rules
Jun-20 @ 08:35 UTC
(34 minutes ago)
VFR
Wind Visibility
230° at 3 knots 10 miles
Clouds
  • Scattered at 5,000' AGL
Temperature Dewpoint
22°C / 72°F 20°C / 68°F
Humidity Altimeter Pressure
88% 29.99" Hg 1016 hPa